• Join FlightAware (Why Join?)
  • Login
  • US Flag 
07:20PM EDT


 

Airport Tracker/Info


-or-


 

Live Flight TrackerFlight Track Log ✈ N850UA ✈ 22-Apr-2013 ✈ KEWR - KCLE

Flight Track Log - Related Links

Times and Time Zones

All times are in EDT time to prevent confusion due to time zone crossing. See the N850UA flight status page for this flight to view local times or setup timezone preferences in your user account.

Time Position Orientation Groundspeed Altitude Reporting Facility
EDT Latitude Longitude Course Direction KTS MPH feet Rate Location/Type
07:31AM 40.7167 -74.1333 287° West 171 197 1,900  Level New York TRACON
07:32AM 40.7333 -74.3988 270° West  Level FlightAware Approximate
07:32AM 40.7833 -74.1500 349° North 271 312 5,600  Level New York TRACON
07:33AM 40.7674 -74.5042 284° West  Level FlightAware Approximate
07:33AM 40.7833 -74.2500 270° West 279 321 9,600  Level New York TRACON
07:34AM 40.7892 -74.6238 284° West  Level FlightAware Approximate
07:34AM 40.8000 -74.3833 279° West 368 423 10,000  Level New York TRACON
07:35AM 40.8137 -74.7426 287° West  Level FlightAware Approximate
07:35AM 40.8167 -74.5167 279° West 388 447 11,400  Level New York TRACON
07:36AM 40.8409 -74.8604 287° West  Level FlightAware Approximate
07:36AM 40.8500 -74.6500 288° West 400 460 14,300  Level New York TRACON
07:37AM 40.8678 -74.8019 279° West 426 490 16,000 1,020 Climbing New York Center
07:38AM 40.8861 -74.9375 280° West 419 482 16,400 480 Climbing New York Center
07:39AM 40.9092 -75.1011 281° West 419 482 17,000 840 Climbing New York Center
07:40AM 40.8997 -75.2486 265° West 413 475 18,100 1,680 Climbing New York Center
07:41AM 40.8647 -75.3944 252° West 409 471 20,400 2,640 Climbing New York Center
07:42AM 40.8325 -75.5294 253° West 404 465 23,400 2,340 Climbing New York Center
07:43AM 40.7997 -75.6669 253° West 399 459 25,100 1,860 Climbing New York Center
07:44AM 40.7664 -75.8153 254° West 404 465 27,200 1,680 Climbing New York Center
07:45AM 40.7386 -75.9283 252° West 410 472 28,600 2,040 Climbing New York Center
07:46AM 40.6975 -76.1003 253° West 416 479 31,300 2,220 Climbing New York Center
07:47AM 40.6764 -76.2467 259° West 416 479 33,100 1,260 Climbing New York Center
07:48AM 40.6861 -76.3950 275° West 401 461 33,900 360 Climbing New York Center
07:49AM 40.7100 -76.5478 282° West 411 473 33,900  Level New York Center
07:50AM 40.7317 -76.7003 281° West 425 489 33,900  Level New York Center
07:51AM 40.7547 -76.8583 281° West 431 496 33,900  Level New York Center
07:52AM 40.7781 -77.0139 281° West 431 496 33,900  Level New York Center
07:53AM 40.8008 -77.1697 281° West 431 496 34,000  Climbing New York Center
07:54AM 40.8236 -77.3253 281° West 431 496 34,000 -60 Level New York Center
07:55AM 40.8439 -77.4836 280° West 431 496 33,900  Descending New York Center
07:56AM 40.8683 -77.6425 282° West 431 496 34,000  Climbing New York Center
07:58AM 40.9181 -78.0111 280° West 429 494 34,000  Level Cleveland Center
07:59AM 40.9442 -78.1667 283° West 429 494 34,000 -60 Level Cleveland Center
08:00AM 40.9747 -78.3306 284° West 436 502 33,900 -60 Descending Cleveland Center
08:01AM 40.9986 -78.4839 282° West 442 509 33,900  Level Cleveland Center
08:02AM 41.0242 -78.6428 282° West 442 509 34,000  Climbing Cleveland Center
08:03AM 41.0475 -78.7989 281° West 442 509 33,900 -180 Descending Cleveland Center
08:04AM 41.0750 -78.9525 283° West 442 509 33,700 -600 Descending Cleveland Center
08:05AM 41.0981 -79.1117 281° West 442 509 32,700 -900 Descending Cleveland Center
08:06AM 41.1206 -79.2600 281° West 447 514 32,000 -540 Descending Cleveland Center
08:07AM 41.1453 -79.4167 282° West 447 514 31,700 -900 Descending Cleveland Center
08:08AM 41.1717 -79.5764 282° West 447 514 30,300 -1,440 Descending Cleveland Center
08:09AM 41.1939 -79.7386 280° West 447 514 28,900 -1,260 Descending Cleveland Center
08:10AM 41.1972 -79.9014 272° West 447 514 27,900 -900 Descending Cleveland Center
08:11AM 41.1750 -80.0644 260° West 441 507 27,200 -1,380 Descending Cleveland Center
08:12AM 41.1736 -80.2244 269° West 441 507 25,200 -2,220 Descending Cleveland Center
08:13AM 41.2303 -80.3953 294° West 439 505 22,800 -2,520 Descending Cleveland Center
08:14AM 41.2844 -80.5500 295° West 452 520 20,200 -2,400 Descending Cleveland Center
08:15AM 41.3386 -80.6939 297° West 446 513 18,100 -2,400 Descending Cleveland Center
08:16AM 41.3928 -80.8350 297° West 434 499 15,500 -2,520 Descending Cleveland Center
08:17AM 41.4383 -80.9569 297° West 413 475 13,400 -2,520 Descending Cleveland Center
08:17AM 41.4567 -81.0097 295° West 408 470 12,300 -2,820 Descending Cleveland Center
08:18AM 41.4878 -81.1069 293° West 414 476 10,300 -1,380 Descending Cleveland Center
08:19AM 41.4744 -81.2456 263° West 378 435 10,000 -240 Descending Cleveland Center
08:19AM 41.4681 -81.2869 258° West 385 443 10,000  Level Cleveland Center
08:20AM 41.4589 -81.3894 263° West 388 447 10,000  Level Cleveland Center
08:20AM 41.4525 -81.4281 258° West 389 448 10,000  Level Cleveland Center
08:21AM 41.4433 -81.5278 263° West 385 443 10,000  Level Cleveland Center
08:21AM 41.4386 -81.5719 262° West 333 383 10,000 -300 Level Cleveland Center
08:22AM 41.4172 -81.6325 245° Southwest 334 384 9,700 -1,020 Descending Cleveland Center
08:22AM 41.4044 -81.6711 246° West 275 316 9,000 -1,680 Descending Cleveland Center
08:23AM 41.3811 -81.7261 241° Southwest 294 338 8,100 -1,500 Descending Cleveland Center
08:23AM 41.3725 -81.7481 242° Southwest 278 320 7,700 -1,620 Descending Cleveland Center
08:24AM 41.3467 -81.8111 241° Southwest 269 310 6,500 -1,500 Descending Cleveland Center
08:24AM 41.3361 -81.8303 234° Southwest 234 269 6,200 -1,140 Descending Cleveland Center